首页
METAR-TAF:

METAR-TAF

机场 :

哈拉雷国际机场

哈拉雷, 辛巴威

纬度: 17-55S, 经度: 031-08E, 海拔: 1479米

当前天气观测

该预报发布于4小时和35分钟前的08:00 UTC
风速12节,风向东转东北,在东北之间变化
温度 23°C
湿度 31%
气压 1026 hPa
能見度: 8000

METAR: FVHA 180800Z 07012KT 040V100 8000 NSC 23/05 Q1026 NOSIG

时间: 14:35 (12:35 UTC)

预报

该预报发布于26小时和35分钟前的10:00 UTC
预报有效从17日的 12点(UTC)到 18日的 18点(UTC)
风速7节,风向
能见度10公里或以上
1500米以下无云,无积雨云

TAF: FVHA 171000Z 1712/1818 08007KT CAVOK

超过4000个机场的气象观测和天气预报(METAR&TAF报告)。

可查询的气象台以黄色和红色小点在地图上表示。

将鼠标移到小点上方,可查看气象台名称。

然后点击查看天气观测和预报。

如需切换地图:点击带黑十字的绿色按钮放大地图;点击带横线的绿色按钮缩小地图;或者点击绿色箭头查看邻近地区的地图。


METAR-TAF: